Goodman, MS (39079)

4:52 AM CST on February 12, 2016 (GMT -0600)
EOC | | Change Station
CLOSE
Current Station
Personal Weather Station
Location: Kosciusko, MS
Elevation: 459 ft
Nearby Weather Stations

Elev 459 ft 33.06 °N, 89.59 °W | Updated 45 seconds ago

Clear
Clear
38.8 °F
Feels Like 39 °F
N
0.0
Wind Variable Wind from ENE
Gusts 0.0 mph

Today
High -- | Low -- °F
--% Chance of Precip.
Yesterday
High -- | Low -- °F
Precip. -- in
Pressure 30.14 in
Visibility 10.0 miles
Clouds Clear
Windchill 39 °F
Dew Point 33 °F
Humidity 81%
Rainfall 0.00 in
Snow Depth Not available.
6:46 AM 5:41 PM
Waxing Crescent, 19% visible
METAR KGWO 120953Z AUTO 00000KT 10SM CLR 04/M02 A3014 RMK AO2 SLP207 T00391022
Pressure 30.14 in
Visibility 10.0 miles
Clouds Clear
Windchill 39 °F
Dew Point 33 °F
Humidity 81%
Rainfall 0.00 in
Snow Depth Not available.
6:46 AM 5:41 PM
Waxing Crescent, 19% visible
METAR KGWO 120953Z AUTO 00000KT 10SM CLR 04/M02 A3014 RMK AO2 SLP207 T00391022

10-Day Weather Forecast

Almanac

Astronomy

Feb. 12, 2016 Rise Set
Actual Time
Civil Twilight
Nautical Twilight
Astronomical Twilight
Moon
Length of Visible Light
Length of Day
Tomorrow will be .
, % of the Moon is Illuminated

Today's Extremes

State Highs State Lows

Community

WunderPhotos

Upload Photos

1,892,289 photos uploaded!

WunderBlog® & News

Nearby

Air Quality

  Air Quality AQ Index Pollutant
Not available.

Snow Depth

Station Depth Elevation

Earthquake Activity

City Distance Mag. Time & Date
Minimum magnitude displayed is 2.5.

Coastal Water Temperatures

Place Temperature

Stations

Nearby Weather Stations

Station Location Temp. Windchill Dew Point Humidity Wind Precip. Elev Updated Type
                   

Watches & Warnings

There are currently no watches in effect.